Christine Cenac — WDJ7480 — position and weather

sailwx.info

Track history (hours):
 
Tides and Currents Weather Stations Pressure Air Temp Water Temp Dewpoint Dewpoint Depression Visibility Wind Speed Wind Dir Waves Ship Positions

Christine Cenac

Owner: Cenac Marine Services, LLC, Houma, LA. More information available from US FCC via Universal Licensing System and Coast Guard Vessel Documentation Center.

Last reported at 2018-Feb-18 21:28 UTC. Time now 2018-Feb-24 06:10 UTC.
Position N 32°41' W 091°05'.

Length 25 m; draft 3.3 m.

Type: Ship (hazmat cat C). MMSI: 368007120.

Date/timePositionNaut miles runAvg speedWind from/ knotsBaromVisibWave heightAir tempDewpointWater temp
2018-Feb-18 21:28N 32°41' W 091°05'3 5.5
2018-Feb-18 20:59N 32°40' W 091°08'3 5.4
2018-Feb-18 20:22N 32°37' W 091°09'2 5.1
2018-Feb-18 20:00N 32°35' W 091°08'3 5.1
2018-Feb-18 19:30N 32°33' W 091°06'3 5.3
2018-Feb-18 19:00N 32°31' W 091°07'3 4.9
2018-Feb-18 18:29N 32°28' W 091°06'3 5.5
2018-Feb-18 18:00N 32°27' W 091°04'3 5.4
2018-Feb-18 17:30N 32°26' W 091°01'2 4.7
2018-Feb-18 17:00N 32°23' W 090°60'2 4.5
2018-Feb-18 16:30N 32°21' W 090°59'2 4.8
2018-Feb-18 16:00N 32°21' W 090°57'2 4.6
2018-Feb-18 15:30N 32°20' W 090°54'1 2.9
2018-Feb-18 15:00N 32°18' W 090°55'0 1.0
2018-Feb-18 14:30N 32°18' W 090°55'0 0.5
2018-Feb-18 14:00N 32°18' W 090°56'0 0.3
2018-Feb-18 13:30N 32°18' W 090°56'2 4.1
2018-Feb-18 13:00N 32°16' W 090°58'2 4.7
2018-Feb-18 12:30N 32°14' W 090°59'2 4.2
2018-Feb-18 12:00N 32°12' W 090°59'2 4.4
2018-Feb-18 11:30N 32°10' W 090°60'2 4.9
2018-Feb-18 11:00N 32°08' W 091°01'5 3.6
2018-Feb-18 09:44N 32°08' W 091°06'1 5.1
2018-Feb-18 09:31N 32°07' W 091°06'6 3.5
2018-Feb-18 07:50N 32°01' W 091°04'  
2018-Feb-09 01:31N 32°07' W 091°07'  
Track history (hours):
 
Tides and Currents Weather Stations Pressure Air Temp Water Temp Dewpoint Dewpoint Depression Visibility Wind Speed Wind Dir Waves Ship Positions

Christine Cenac

Owner: Cenac Marine Services, LLC, Houma, LA. More information available from US FCC via Universal Licensing System and Coast Guard Vessel Documentation Center.

Last reported at 2018-Feb-18 21:28 UTC. Time now 2018-Feb-24 06:10 UTC.
Position N 32°41' W 091°05'.

Length 25 m; draft 3.3 m.

Type: Ship (hazmat cat C). MMSI: 368007120.

Date/timePositionNaut miles runAvg speedWind from/ knotsBaromVisibWave heightAir tempDewpointWater temp
2018-Feb-18 21:28N 32°41' W 091°05'3 5.5
2018-Feb-18 20:59N 32°40' W 091°08'3 5.4
2018-Feb-18 20:22N 32°37' W 091°09'2 5.1
2018-Feb-18 20:00N 32°35' W 091°08'3 5.1
2018-Feb-18 19:30N 32°33' W 091°06'3 5.3
2018-Feb-18 19:00N 32°31' W 091°07'3 4.9
2018-Feb-18 18:29N 32°28' W 091°06'3 5.5
2018-Feb-18 18:00N 32°27' W 091°04'3 5.4
2018-Feb-18 17:30N 32°26' W 091°01'2 4.7
2018-Feb-18 17:00N 32°23' W 090°60'2 4.5
2018-Feb-18 16:30N 32°21' W 090°59'2 4.8
2018-Feb-18 16:00N 32°21' W 090°57'2 4.6
2018-Feb-18 15:30N 32°20' W 090°54'1 2.9
2018-Feb-18 15:00N 32°18' W 090°55'0 1.0
2018-Feb-18 14:30N 32°18' W 090°55'0 0.5
2018-Feb-18 14:00N 32°18' W 090°56'0 0.3
2018-Feb-18 13:30N 32°18' W 090°56'2 4.1
2018-Feb-18 13:00N 32°16' W 090°58'2 4.7
2018-Feb-18 12:30N 32°14' W 090°59'2 4.2
2018-Feb-18 12:00N 32°12' W 090°59'2 4.4
2018-Feb-18 11:30N 32°10' W 090°60'2 4.9
2018-Feb-18 11:00N 32°08' W 091°01'5 3.6
2018-Feb-18 09:44N 32°08' W 091°06'1 5.1
2018-Feb-18 09:31N 32°07' W 091°06'6 3.5
2018-Feb-18 07:50N 32°01' W 091°04'  
2018-Feb-09 01:31N 32°07' W 091°07'  

Dump ship's entire track history